createdAt,value
2022-08-12T00:01:03.863Z,26.90
2022-08-12T00:03:51.461Z,26.86
2022-08-12T00:06:39.831Z,26.81
2022-08-12T00:09:26.589Z,26.78
2022-08-12T00:12:12.890Z,26.76
2022-08-12T00:14:58.125Z,26.72
2022-08-12T00:17:43.548Z,26.68
2022-08-12T00:20:29.841Z,26.64
2022-08-12T00:23:15.777Z,26.61
2022-08-12T00:26:20.797Z,26.57
2022-08-12T00:29:13.435Z,26.56
2022-08-12T00:32:00.337Z,26.53
2022-08-12T00:34:46.585Z,26.50
2022-08-12T00:37:34.742Z,26.49
2022-08-12T00:40:22.135Z,26.46
2022-08-12T00:42:48.766Z,26.46
2022-08-12T00:45:15.381Z,26.44
2022-08-12T00:47:43.385Z,26.41
2022-08-12T00:50:18.122Z,26.38
2022-08-12T00:52:47.227Z,26.37
2022-08-12T00:55:15.358Z,26.36
2022-08-12T00:57:47.937Z,26.32
2022-08-12T01:00:25.217Z,26.29
2022-08-12T01:02:57.574Z,26.26
2022-08-12T01:05:44.770Z,26.24
2022-08-12T01:08:30.124Z,26.23
2022-08-12T01:11:16.172Z,26.19
2022-08-12T01:13:48.418Z,26.14
2022-08-12T01:16:22.989Z,26.12
2022-08-12T01:18:51.744Z,26.11
2022-08-12T01:21:27.408Z,26.05
2022-08-12T01:24:32.028Z,26.02
2022-08-12T01:27:01.221Z,26.04
2022-08-12T01:29:33.257Z,26.01
2022-08-12T01:32:08.972Z,25.97
2022-08-12T01:34:38.538Z,25.95
2022-08-12T01:37:08.349Z,25.92
2022-08-12T01:40:35.377Z,25.87
2022-08-12T01:42:39.337Z,25.88
2022-08-12T01:45:07.169Z,25.85
2022-08-12T01:47:50.566Z,25.79
2022-08-12T01:51:00.568Z,25.77
2022-08-12T01:53:50.279Z,25.77
2022-08-12T01:56:21.946Z,25.74
2022-08-12T01:59:12.199Z,25.70
2022-08-12T02:01:40.167Z,25.68
2022-08-12T02:04:40.525Z,25.60
2022-08-12T02:08:06.836Z,25.58
2022-08-12T02:11:24.356Z,25.53
2022-08-12T02:13:58.561Z,25.50
2022-08-12T02:16:56.579Z,25.44
2022-08-12T02:19:51.003Z,25.41
2022-08-12T02:22:29.922Z,25.37
2022-08-12T02:25:33.670Z,25.34
2022-08-12T02:28:00.873Z,25.33
2022-08-12T02:30:42.467Z,25.29
2022-08-12T02:33:10.235Z,25.25
2022-08-12T02:35:36.898Z,25.23
2022-08-12T02:38:09.744Z,25.16
2022-08-12T02:40:38.788Z,25.17
2022-08-12T02:43:12.173Z,25.12
2022-08-12T02:46:00.283Z,25.08
2022-08-12T02:48:35.546Z,25.07
2022-08-12T02:51:06.292Z,25.04
2022-08-12T02:53:36.708Z,25.01
2022-08-12T02:56:05.242Z,24.97
2022-08-12T02:58:33.103Z,24.96
2022-08-12T03:01:01.589Z,24.96
2022-08-12T03:03:33.210Z,24.92
2022-08-12T03:06:01.952Z,24.88
2022-08-12T03:08:33.021Z,24.84
2022-08-12T03:11:20.698Z,24.77
2022-08-12T03:13:57.905Z,24.76
2022-08-12T03:16:27.975Z,24.73
2022-08-12T03:18:54.881Z,24.71
2022-08-12T03:21:52.679Z,24.70
2022-08-12T03:24:10.450Z,24.69
2022-08-12T03:26:37.676Z,24.67
2022-08-12T03:29:06.771Z,24.64
2022-08-12T03:31:34.162Z,24.61
2022-08-12T03:34:12.686Z,24.58
2022-08-12T03:36:41.178Z,24.61
2022-08-12T03:39:17.515Z,24.58
2022-08-12T03:41:58.085Z,24.55
2022-08-12T03:44:57.485Z,24.55
2022-08-12T03:47:52.668Z,24.56
2022-08-12T03:50:38.616Z,24.55
2022-08-12T03:53:27.913Z,24.53
2022-08-12T03:56:13.820Z,24.51
2022-08-12T03:58:59.862Z,24.50
2022-08-12T04:01:26.976Z,24.49
2022-08-12T04:03:54.810Z,24.46
2022-08-12T04:06:34.706Z,24.43
2022-08-12T04:09:15.964Z,24.44
2022-08-12T04:12:02.308Z,24.44
2022-08-12T04:14:28.840Z,24.44
2022-08-12T04:16:57.231Z,24.41
2022-08-12T04:19:25.164Z,24.41
2022-08-12T04:22:02.180Z,24.40
2022-08-12T04:24:35.459Z,24.38
2022-08-12T04:27:05.451Z,24.38
2022-08-12T04:30:29.243Z,24.36
2022-08-12T04:32:18.936Z,24.36
2022-08-12T04:34:45.711Z,24.35
2022-08-12T04:37:12.866Z,24.33
2022-08-12T04:39:40.139Z,24.30
2022-08-12T04:42:06.852Z,24.30
2022-08-12T04:44:33.377Z,24.29
2022-08-12T04:47:00.216Z,24.27
2022-08-12T04:49:27.876Z,24.27
2022-08-12T04:51:58.969Z,24.28
2022-08-12T04:54:27.531Z,24.28
2022-08-12T04:57:03.462Z,24.28
2022-08-12T04:59:47.030Z,24.27
2022-08-12T05:02:21.569Z,24.28
2022-08-12T05:04:51.615Z,24.34
2022-08-12T05:07:18.542Z,24.40
2022-08-12T05:10:00.824Z,24.46
2022-08-12T05:12:34.821Z,24.49
2022-08-12T05:15:01.700Z,24.55
2022-08-12T05:17:28.580Z,24.57
2022-08-12T05:19:57.068Z,24.57
2022-08-12T05:22:26.156Z,24.61
2022-08-12T05:24:52.840Z,24.64
2022-08-12T05:27:19.473Z,24.68
2022-08-12T05:30:06.438Z,24.71
2022-08-12T05:32:36.062Z,24.75
2022-08-12T05:35:06.362Z,24.77
2022-08-12T05:37:34.886Z,24.81
2022-08-12T05:40:08.368Z,24.87
2022-08-12T05:42:37.408Z,24.92
2022-08-12T05:45:04.294Z,24.97
2022-08-12T05:47:42.828Z,25.00
2022-08-12T05:50:17.563Z,25.06
2022-08-12T05:52:44.082Z,25.09
2022-08-12T05:55:11.684Z,25.15
2022-08-12T05:57:39.111Z,25.20
2022-08-12T06:00:06.601Z,25.24
2022-08-12T06:02:35.038Z,25.30
2022-08-12T06:05:02.505Z,25.36
2022-08-12T06:07:42.781Z,25.44
2022-08-12T06:10:32.142Z,25.46
2022-08-12T06:13:04.462Z,25.50
2022-08-12T06:15:35.743Z,25.53
2022-08-12T06:18:13.792Z,25.57
2022-08-12T06:20:43.490Z,25.65
2022-08-12T06:23:11.723Z,25.72
2022-08-12T06:25:38.518Z,25.78
2022-08-12T06:28:15.750Z,25.84
2022-08-12T06:30:42.350Z,25.96
2022-08-12T06:33:22.254Z,26.04
2022-08-12T06:35:51.214Z,26.15
2022-08-12T06:38:18.529Z,26.25
2022-08-12T06:41:04.915Z,26.33
2022-08-12T06:44:05.582Z,26.45
2022-08-12T06:46:19.590Z,26.57
2022-08-12T06:48:46.086Z,26.71
2022-08-12T06:51:12.824Z,26.86
2022-08-12T06:53:41.256Z,27.02
2022-08-12T06:56:12.326Z,27.18
2022-08-12T06:58:39.703Z,27.38
2022-08-12T07:01:07.152Z,27.52
2022-08-12T07:03:33.773Z,27.66
2022-08-12T07:06:06.529Z,27.76
2022-08-12T07:08:35.026Z,27.89
2022-08-12T07:11:03.210Z,28.02
2022-08-12T07:14:12.789Z,28.14
2022-08-12T07:16:57.565Z,28.26
2022-08-12T07:19:25.135Z,28.35
2022-08-12T07:22:07.708Z,28.43
2022-08-12T07:24:34.202Z,28.52
2022-08-12T07:27:00.891Z,28.63
2022-08-12T07:30:00.051Z,28.76
2022-08-12T07:32:15.130Z,29.04
2022-08-12T07:34:43.249Z,29.40
2022-08-12T07:37:09.784Z,29.88
2022-08-12T07:39:36.314Z,30.42
2022-08-12T07:42:17.038Z,31.10
2022-08-12T07:44:44.028Z,31.76
2022-08-12T07:47:10.614Z,32.40
2022-08-12T07:50:06.222Z,33.03
2022-08-12T07:52:25.776Z,33.70
2022-08-12T07:54:52.262Z,34.24
2022-08-12T07:57:18.784Z,34.75
2022-08-12T07:59:45.679Z,35.27
2022-08-12T08:02:16.215Z,35.74
2022-08-12T08:04:58.048Z,36.19
2022-08-12T08:07:30.840Z,36.65
2022-08-12T08:10:01.237Z,37.05
2022-08-12T08:12:47.626Z,37.44
2022-08-12T08:15:15.720Z,37.84
2022-08-12T08:17:56.540Z,38.10
2022-08-12T08:20:28.348Z,38.40
2022-08-12T08:22:56.734Z,38.65
2022-08-12T08:25:36.043Z,38.85
2022-08-12T08:28:08.892Z,39.02
2022-08-12T08:30:38.293Z,39.15
2022-08-12T08:33:23.081Z,39.27
2022-08-12T08:35:54.427Z,39.37
2022-08-12T08:38:33.186Z,39.40
2022-08-12T08:42:17.010Z,39.41
2022-08-12T08:44:11.507Z,39.42
2022-08-12T08:46:39.617Z,39.40
2022-08-12T08:49:06.170Z,39.40
2022-08-12T08:51:32.902Z,39.36
2022-08-12T08:53:59.448Z,39.24
2022-08-12T08:56:27.184Z,39.11
2022-08-12T08:58:53.719Z,38.91
2022-08-12T09:01:22.467Z,38.69
2022-08-12T09:05:10.124Z,38.47
2022-08-12T09:06:38.015Z,38.27
2022-08-12T09:12:13.862Z,37.94
2022-08-12T09:14:46.946Z,37.81
2022-08-12T09:17:21.230Z,37.72
2022-08-12T09:19:55.131Z,37.59
2022-08-12T09:22:28.537Z,37.47
2022-08-12T09:24:55.336Z,37.38
2022-08-12T09:27:27.160Z,37.30
2022-08-12T09:30:15.765Z,37.25
2022-08-12T09:33:04.014Z,37.20
2022-08-12T09:35:42.876Z,37.18
2022-08-12T09:38:28.393Z,37.16
2022-08-12T09:42:07.594Z,37.15
2022-08-12T09:44:06.342Z,37.13
2022-08-12T09:46:53.174Z,37.10
2022-08-12T09:49:24.043Z,37.07
2022-08-12T09:51:51.643Z,37.03
2022-08-12T09:54:34.362Z,37.00
2022-08-12T09:58:45.077Z,36.98
2022-08-12T10:00:14.855Z,36.93
2022-08-12T10:03:09.109Z,36.86
2022-08-12T10:06:20.312Z,36.87
2022-08-12T10:08:44.441Z,36.85
2022-08-12T10:12:07.760Z,36.82
2022-08-12T10:14:21.580Z,36.77
2022-08-12T10:17:01.490Z,36.73
2022-08-12T10:19:36.271Z,36.70
2022-08-12T10:22:06.111Z,36.63
2022-08-12T10:24:53.300Z,36.57
2022-08-12T10:27:39.559Z,36.49
2022-08-12T10:30:41.990Z,36.42
2022-08-12T10:33:19.220Z,36.35
2022-08-12T10:35:58.266Z,36.30
2022-08-12T10:38:33.282Z,36.26
2022-08-12T10:41:57.297Z,36.23
2022-08-12T10:44:17.458Z,36.20
2022-08-12T10:46:49.096Z,36.15
2022-08-12T10:50:03.351Z,36.12
2022-08-12T10:52:33.356Z,36.14
2022-08-12T10:54:51.744Z,36.18
2022-08-12T10:58:13.349Z,36.16
2022-08-12T11:00:30.566Z,36.13
2022-08-12T11:04:25.901Z,36.15
2022-08-12T11:07:07.640Z,36.15
2022-08-12T11:08:36.997Z,36.12
2022-08-12T11:11:13.736Z,36.08
2022-08-12T11:13:48.729Z,36.11
2022-08-12T11:16:21.787Z,36.12
2022-08-12T11:18:55.057Z,36.15
2022-08-12T11:21:56.127Z,36.16
2022-08-12T11:24:30.057Z,36.23
2022-08-12T11:26:59.228Z,36.26
2022-08-12T11:29:27.506Z,36.27
2022-08-12T11:32:14.011Z,36.27
2022-08-12T11:34:53.506Z,36.26
2022-08-12T11:37:25.577Z,36.24
2022-08-12T11:42:37.279Z,36.19
2022-08-12T11:45:06.726Z,36.18
2022-08-12T11:47:40.137Z,36.16
2022-08-12T11:50:07.890Z,36.13
2022-08-12T11:52:55.794Z,36.10
2022-08-12T11:55:24.218Z,36.10
2022-08-12T11:58:14.251Z,36.07
2022-08-12T12:03:40.245Z,36.05
2022-08-12T12:06:15.439Z,36.05
2022-08-12T12:08:50.473Z,36.08
2022-08-12T12:11:18.552Z,36.10
2022-08-12T12:14:07.902Z,36.11
2022-08-12T12:16:33.299Z,36.14
2022-08-12T12:19:00.306Z,36.15
2022-08-12T12:21:48.750Z,36.16
2022-08-12T12:24:13.304Z,36.18
2022-08-12T12:26:39.839Z,36.18
2022-08-12T12:30:13.695Z,36.16
2022-08-12T12:32:11.041Z,36.17
2022-08-12T12:34:38.880Z,36.16
2022-08-12T12:37:58.968Z,36.15
2022-08-12T12:40:14.021Z,36.15
2022-08-12T12:42:44.288Z,36.17
2022-08-12T12:45:25.928Z,36.18
2022-08-12T12:47:55.049Z,36.18
2022-08-12T12:50:34.709Z,36.19
2022-08-12T12:53:01.800Z,36.19
2022-08-12T12:55:35.540Z,36.19
2022-08-12T12:58:04.850Z,36.20
2022-08-12T13:00:36.415Z,36.20
2022-08-12T13:03:02.986Z,36.22
2022-08-12T13:05:42.294Z,36.21
2022-08-12T13:08:38.630Z,36.18
2022-08-12T13:11:06.742Z,36.21
2022-08-12T13:14:07.173Z,36.20
2022-08-12T13:16:26.627Z,36.20
2022-08-12T13:18:54.027Z,36.19
2022-08-12T13:21:33.101Z,36.18
2022-08-12T13:24:09.885Z,36.17
2022-08-12T13:26:39.990Z,36.18
2022-08-12T13:29:11.291Z,36.19
2022-08-12T13:32:17.629Z,36.20
2022-08-12T13:34:33.905Z,36.21
2022-08-12T13:37:09.068Z,36.24
2022-08-12T13:39:36.798Z,36.25
2022-08-12T13:42:06.358Z,36.27
2022-08-12T13:44:40.870Z,36.32
2022-08-12T13:47:19.695Z,36.33
2022-08-12T13:49:55.334Z,36.38
2022-08-12T13:52:23.533Z,36.40
2022-08-12T13:54:56.267Z,36.41
2022-08-12T13:57:26.369Z,36.41
2022-08-12T13:59:55.527Z,36.44
2022-08-12T14:02:22.566Z,36.45
2022-08-12T14:04:55.929Z,36.46
2022-08-12T14:07:25.975Z,36.47
2022-08-12T14:10:16.385Z,36.50
2022-08-12T14:12:54.826Z,36.50
2022-08-12T14:15:36.702Z,36.49
2022-08-12T14:18:10.615Z,36.50
2022-08-12T14:20:40.799Z,36.52
2022-08-12T14:24:01.180Z,36.52
2022-08-12T14:25:58.895Z,36.55
2022-08-12T14:28:26.815Z,36.57
2022-08-12T14:31:01.238Z,36.54
2022-08-12T14:33:44.323Z,36.53
2022-08-12T14:36:12.761Z,36.59
2022-08-12T14:38:42.080Z,36.61
2022-08-12T14:41:14.628Z,36.60
2022-08-12T14:43:44.239Z,36.62
2022-08-12T14:46:27.227Z,36.65
2022-08-12T14:48:54.868Z,36.65
2022-08-12T14:52:43.471Z,36.67
2022-08-12T14:56:59.368Z,36.69
2022-08-12T14:57:19.056Z,36.68
2022-08-12T15:00:01.744Z,36.67
2022-08-12T15:02:29.575Z,36.63
2022-08-12T15:04:59.031Z,36.61
2022-08-12T15:07:33.406Z,36.58
2022-08-12T15:10:13.761Z,36.58
2022-08-12T15:12:40.800Z,36.54
2022-08-12T15:15:09.099Z,36.53
2022-08-12T15:17:38.588Z,36.53
2022-08-12T15:20:31.285Z,36.57
2022-08-12T15:22:54.124Z,36.61
2022-08-12T15:25:21.255Z,36.60
2022-08-12T15:28:11.025Z,36.57
2022-08-12T15:30:40.410Z,36.54
2022-08-12T15:33:12.730Z,36.52
2022-08-12T15:35:50.184Z,36.49
2022-08-12T15:38:20.495Z,36.52
2022-08-12T15:40:50.454Z,36.54
2022-08-12T15:43:27.452Z,36.51
2022-08-12T15:46:06.288Z,36.51
2022-08-12T15:48:34.138Z,36.50
2022-08-12T15:51:02.872Z,36.48
2022-08-12T15:53:53.282Z,36.50
2022-08-12T15:56:29.077Z,36.50
2022-08-12T15:58:58.773Z,36.48
2022-08-12T16:01:34.054Z,36.49
2022-08-12T16:04:02.460Z,36.50
2022-08-12T16:07:03.689Z,36.47
2022-08-12T16:09:21.569Z,36.46
2022-08-12T16:11:48.412Z,36.44
2022-08-12T16:14:16.215Z,36.41
2022-08-12T16:16:43.049Z,36.40
2022-08-12T16:20:01.783Z,36.39
2022-08-12T16:21:58.302Z,36.39
2022-08-12T16:24:25.542Z,36.37
2022-08-12T16:26:54.370Z,36.35
2022-08-12T16:29:38.650Z,36.34
2022-08-12T16:32:21.107Z,36.35
2022-08-12T16:34:54.757Z,36.34
2022-08-12T16:38:04.867Z,36.30
2022-08-12T16:40:11.344Z,36.29
2022-08-12T16:42:39.372Z,36.30
2022-08-12T16:45:13.657Z,36.28
2022-08-12T16:47:58.733Z,36.23
2022-08-12T16:50:31.274Z,36.19
2022-08-12T16:52:59.891Z,36.16
2022-08-12T16:55:41.853Z,36.12
2022-08-12T16:58:27.927Z,36.09
2022-08-12T17:00:55.922Z,36.08
2022-08-12T17:03:28.808Z,36.06
2022-08-12T17:05:57.025Z,36.03
2022-08-12T17:08:28.942Z,36.03
2022-08-12T17:10:56.335Z,36.00
2022-08-12T17:13:26.136Z,35.99
2022-08-12T17:16:04.891Z,35.96
2022-08-12T17:18:42.380Z,35.92
2022-08-12T17:21:11.894Z,35.91
2022-08-12T17:23:48.568Z,35.89
2022-08-12T17:26:22.427Z,35.89
2022-08-12T17:28:56.515Z,35.86
2022-08-12T17:31:59.756Z,35.83
2022-08-12T17:34:29.614Z,35.82
2022-08-12T17:36:58.753Z,35.79
2022-08-12T17:40:12.800Z,35.76
2022-08-12T17:42:34.730Z,35.73
2022-08-12T17:45:17.058Z,35.68
2022-08-12T17:48:04.531Z,35.65
2022-08-12T17:50:34.700Z,35.61
2022-08-12T17:53:02.772Z,35.57
2022-08-12T17:55:43.269Z,35.52
2022-08-12T17:58:14.333Z,35.49
2022-08-12T18:00:45.128Z,35.45
2022-08-12T18:04:04.843Z,35.39
2022-08-12T18:06:08.490Z,35.34
2022-08-12T18:08:35.668Z,35.30
2022-08-12T18:11:21.208Z,35.24
2022-08-12T18:14:07.270Z,35.19
2022-08-12T18:16:35.005Z,35.12
2022-08-12T18:19:02.418Z,35.07
2022-08-12T18:22:00.950Z,35.00
2022-08-12T18:24:21.707Z,34.95
2022-08-12T18:26:56.478Z,34.89
2022-08-12T18:29:27.177Z,34.81
2022-08-12T18:32:35.030Z,34.74
2022-08-12T18:34:58.323Z,34.66
2022-08-12T18:37:41.964Z,34.60
2022-08-12T18:40:28.747Z,34.52
2022-08-12T18:42:59.255Z,34.44
2022-08-12T18:45:31.385Z,34.35
2022-08-12T18:48:14.914Z,34.28
2022-08-12T18:50:49.054Z,34.20
2022-08-12T18:54:07.130Z,34.12
2022-08-12T18:56:04.914Z,34.05
2022-08-12T18:58:59.504Z,33.94
2022-08-12T19:02:19.893Z,33.88
2022-08-12T19:04:15.644Z,33.81
2022-08-12T19:06:45.778Z,33.72
2022-08-12T19:09:14.996Z,33.64
2022-08-12T19:12:00.751Z,33.61
2022-08-12T19:14:28.215Z,33.55
2022-08-12T19:17:01.165Z,33.44
2022-08-12T19:19:27.781Z,33.36
2022-08-12T19:22:05.511Z,33.27
2022-08-12T19:24:50.960Z,33.17
2022-08-12T19:27:18.571Z,33.07
2022-08-12T19:29:45.118Z,32.99
2022-08-12T19:32:31.795Z,32.90
2022-08-12T19:38:06.388Z,32.74
2022-08-12T19:40:37.287Z,32.65
2022-08-12T19:43:20.094Z,32.56
2022-08-12T19:45:56.765Z,32.45
2022-08-12T19:48:27.437Z,32.39
2022-08-12T19:50:55.563Z,32.31
2022-08-12T19:53:23.882Z,32.23
2022-08-12T19:55:55.482Z,32.12
2022-08-12T19:58:23.550Z,32.06
2022-08-12T20:00:53.287Z,31.99
2022-08-12T20:03:40.399Z,31.92
2022-08-12T20:06:23.807Z,31.84
2022-08-12T20:08:56.759Z,31.78
2022-08-12T20:12:13.269Z,31.69
2022-08-12T20:14:18.943Z,31.64
2022-08-12T20:16:53.038Z,31.58
2022-08-12T20:20:01.701Z,31.52
2022-08-12T20:22:24.270Z,31.46
2022-08-12T20:24:58.099Z,31.42
2022-08-12T20:28:02.824Z,31.39
2022-08-12T20:30:16.517Z,31.35
2022-08-12T20:33:17.758Z,31.28
2022-08-12T20:36:13.862Z,31.26
2022-08-12T20:38:39.441Z,31.19
2022-08-12T20:41:16.218Z,31.10
2022-08-12T20:43:44.390Z,31.03
2022-08-12T20:46:13.411Z,30.95
2022-08-12T20:48:43.464Z,30.88
2022-08-12T20:51:19.195Z,30.81
2022-08-12T20:53:57.765Z,30.71
2022-08-12T20:56:34.913Z,30.64
2022-08-12T20:59:06.821Z,30.57
2022-08-12T21:01:46.231Z,30.50
2022-08-12T21:04:34.104Z,30.43
2022-08-12T21:07:04.704Z,30.37
2022-08-12T21:09:41.022Z,30.29
2022-08-12T21:12:37.508Z,30.20
2022-08-12T21:15:23.235Z,30.13
2022-08-12T21:18:09.350Z,30.08
2022-08-12T21:20:34.473Z,30.00
2022-08-12T21:23:04.270Z,29.94
2022-08-12T21:25:44.687Z,29.87
2022-08-12T21:28:14.369Z,29.80
2022-08-12T21:31:10.395Z,29.75
2022-08-12T21:33:31.492Z,29.69
2022-08-12T21:36:00.920Z,29.64
2022-08-12T21:38:35.137Z,29.60
2022-08-12T21:41:07.082Z,29.55
2022-08-12T21:43:43.633Z,29.51
2022-08-12T21:46:34.716Z,29.48
2022-08-12T21:49:04.985Z,29.43
2022-08-12T21:51:49.296Z,29.39
2022-08-12T21:54:22.600Z,29.35
2022-08-12T21:56:52.210Z,29.32
2022-08-12T21:59:21.739Z,29.29
2022-08-12T22:01:49.629Z,29.26
2022-08-12T22:04:36.535Z,29.21
2022-08-12T22:07:04.405Z,29.15
2022-08-12T22:09:42.775Z,29.11
2022-08-12T22:12:29.051Z,29.05
2022-08-12T22:14:55.563Z,29.00
2022-08-12T22:17:49.510Z,28.98
2022-08-12T22:20:17.367Z,28.95
2022-08-12T22:22:53.621Z,28.91
2022-08-12T22:25:24.234Z,28.90
2022-08-12T22:28:12.368Z,28.86
2022-08-12T22:30:57.184Z,28.83
2022-08-12T22:33:23.733Z,28.80
2022-08-12T22:35:59.824Z,28.77
2022-08-12T22:38:29.094Z,28.74
2022-08-12T22:41:34.603Z,28.66
2022-08-12T22:44:20.962Z,28.70
2022-08-12T22:47:07.239Z,28.65
2022-08-12T22:49:49.007Z,28.63
2022-08-12T22:52:22.947Z,28.59
2022-08-12T22:55:03.821Z,28.55
2022-08-12T22:57:54.072Z,28.51
2022-08-12T23:00:24.221Z,28.47
2022-08-12T23:02:56.716Z,28.41
2022-08-12T23:05:57.130Z,28.35
2022-08-12T23:08:17.674Z,28.30
2022-08-12T23:10:46.434Z,28.24
2022-08-12T23:13:43.185Z,28.19
2022-08-12T23:16:28.361Z,28.13
2022-08-12T23:19:10.742Z,28.07
2022-08-12T23:22:05.167Z,28.03
2022-08-12T23:24:53.759Z,27.99
2022-08-12T23:27:50.811Z,27.94
2022-08-12T23:30:24.689Z,27.86
2022-08-12T23:32:59.652Z,27.83
2022-08-12T23:35:45.336Z,27.78
2022-08-12T23:38:30.733Z,27.71
2022-08-12T23:40:59.941Z,27.66
2022-08-12T23:43:39.974Z,27.60
2022-08-12T23:46:18.412Z,27.55
2022-08-12T23:48:48.068Z,27.51
2022-08-12T23:51:23.753Z,27.47
2022-08-12T23:54:07.143Z,27.39
2022-08-12T23:56:35.785Z,27.35
2022-08-12T23:59:08.246Z,27.31
